Disclaimer

Please do not use the information listed here in-flight or in-navigation, as they are not provided to us by the airports but are provided by volunteers, so they might be outdated.

Search


Regions


Airport information page

Radio informations:
Tower (TWR) - 118.9 MHz
HANDLING - 130.225 MHz
Approach (APP) - 125.525 MHz

Airport informations:
Latitude: 55° 35' 08.04" N
Longitude: 012° 07' 53.14" E
Elevation: 146 feet - 45 meters
Operating hours: 24 hour operations
Operating agency: Civil government, landing fees and diplomatic clearance may be required
Timezone: UTC+1(+2DT) - Last Sunday in March to last Sunday in October
Fuel: Jet A1, without icing nhibitor.

100/130 MIL Spec, low lead, aviation gasoline (BLUE)

Runway information:
03/21 - 4921 x 105 feet< - >1500 x 32 meters
11/29 - 5709 x 105 feet< - >1740 x 32 meters

Recent METARs:
EKRK 191550Z AUTO 07012KT 9999NDV FEW020/// 05/01 Q1030
EKRK 191620Z AUTO 08012KT 050V110 9999NDV SCT019/// BKN024/// 04/01 Q1030
EKRK 191650Z AUTO 07012KT 030V100 9999NDV SCT020/// BKN024/// 04/01 Q1030

Airport on the map: